Hope Valley, Rhode Island
Current Conditions -  °F | °C
As of 5:53 AM on Sunday 21 Dec 2014 (Local Time) from KWST Reporting Station
Overcast Overcast  
Wind Chill: 29°   Ceiling: 700
Heat Index: 35°   Visibility: 10mi
Dew Point: 32°   Wind: 7mph
Humidity: 89%   Direction: 30°NNE
Pressure: 30.25"   Gusts: NA
Location:  41.51°N, 71.71°W
Report Text: KWST 211053Z AUTO 03006KT 10SM OVC007 02/00 A3025 RMK AO2 SLP245 T00170000
Loading
Personal Weather Stations






























Interactive Weather Map New forecast layout! Learn more

10-Day Weather Forecast

Advertisements
Track Severe Weather on mobile